Time;durP1;ratioP1;P1;durP2;ratioP2;P2;SDS_P1;SDS_P2;PMS_P1;PMS_P2;Temp;Humidity;BMP_temperature;BMP_pressure;BME280_temperature;BME280_humidity;BME280_pressure;Samples;Min_cycle;Max_cycle;Signal;HPM_P1;HPM_P2
2020/12/17 00:01:34;;;;;;;32.95;14.15;;;;;;;4.99;72.83;94686.97;5012410;28;20021;-70
2020/12/17 00:04:00;;;;;;;35.55;14.02;;;;;;;4.97;73.13;94681.16;5010915;28;20049;-69
2020/12/17 00:06:25;;;;;;;35.97;14.70;;;;;;;4.97;73.09;94679.31;5012412;28;20123;-69
2020/12/17 00:08:51;;;;;;;35.72;16.38;;;;;;;5.00;72.96;94681.41;5011130;28;20057;-69
2020/12/17 00:11:17;;;;;;;30.85;15.13;;;;;;;5.00;73.02;94681.41;5012313;28;20056;-69
2020/12/17 00:13:42;;;;;;;34.58;16.48;;;;;;;5.01;72.93;94685.66;5011933;28;20453;-70
2020/12/17 00:16:09;;;;;;;35.47;16.60;;;;;;;5.01;72.82;94680.38;5011205;28;20104;-69
2020/12/17 00:18:34;;;;;;;47.40;17.02;;;;;;;5.03;72.73;94673.00;5012148;28;20026;-69
2020/12/17 00:21:00;;;;;;;38.08;16.80;;;;;;;5.05;72.73;94685.13;5010933;28;20044;-69
2020/12/17 00:23:25;;;;;;;37.28;15.52;;;;;;;5.04;72.89;94681.69;5012096;28;20428;-69
2020/12/17 00:25:50;;;;;;;42.03;16.33;;;;;;;5.08;72.78;94679.34;5011682;28;20460;-70
2020/12/17 00:28:16;;;;;;;45.40;16.33;;;;;;;5.09;72.76;94673.81;5011778;28;20037;-69
2020/12/17 00:30:41;;;;;;;40.47;17.55;;;;;;;5.09;72.65;94676.47;5012042;28;20029;-70
2020/12/17 00:33:07;;;;;;;42.63;16.05;;;;;;;5.07;72.71;94689.13;5010669;28;20041;-70
2020/12/17 00:35:33;;;;;;;38.70;16.73;;;;;;;5.06;73.19;94686.75;5011579;28;20022;-69
2020/12/17 00:38:03;;;;;;;44.22;15.50;;;;;;;5.07;73.04;94680.38;5012125;28;20098;-69
2020/12/17 00:40:29;;;;;;;34.83;15.70;;;;;;;5.09;72.80;94691.50;5011993;28;20026;-69
2020/12/17 00:42:54;;;;;;;33.05;14.80;;;;;;;5.08;72.68;94692.56;5011366;28;20046;-69
2020/12/17 00:45:20;;;;;;;37.28;15.65;;;;;;;5.07;73.06;94680.38;5011226;28;20036;-69
2020/12/17 00:47:45;;;;;;;35.92;14.55;;;;;;;5.07;73.04;94681.19;5011629;28;20105;-69
2020/12/17 00:50:12;;;;;;;37.15;14.57;;;;;;;5.07;72.94;94688.31;5011223;28;20038;-69
2020/12/17 00:52:41;;;;;;;37.53;15.52;;;;;;;5.09;72.79;94681.75;5010126;28;20022;-69
2020/12/17 00:55:07;;;;;;;43.97;16.05;;;;;;;5.10;72.77;94687.81;5010129;28;20478;-69
2020/12/17 00:57:33;;;;;;;39.67;17.38;;;;;;;5.10;72.98;94678.03;5008542;28;20083;-69
2020/12/17 00:59:59;;;;;;;48.30;16.08;;;;;;;5.10;73.03;94680.66;5009585;28;20022;-70
2020/12/17 01:02:24;;;;;;;41.85;17.13;;;;;;;5.09;73.20;94678.28;5010522;28;20483;-70
2020/12/17 01:04:50;;;;;;;42.63;17.05;;;;;;;5.08;73.19;94680.13;5010883;28;20036;-70
2020/12/17 01:07:16;;;;;;;39.25;15.60;;;;;;;5.09;73.28;94680.91;5009377;28;20064;-70
2020/12/17 01:09:42;;;;;;;50.05;17.40;;;;;;;5.14;72.93;94686.25;5009197;28;20022;-70
2020/12/17 01:12:08;;;;;;;44.67;17.05;;;;;;;5.11;72.67;94677.00;5010719;28;20536;-70
2020/12/17 01:14:35;;;;;;;56.40;15.20;;;;;;;5.11;72.74;94684.91;5009925;28;20029;-69
2020/12/17 01:17:02;;;;;;;41.75;15.60;;;;;;;5.03;73.37;94677.50;5008606;28;20460;-70
2020/12/17 01:19:28;;;;;;;38.22;14.93;;;;;;;4.98;73.56;94678.25;5010272;28;20033;-70
2020/12/17 01:21:53;;;;;;;39.15;15.25;;;;;;;4.94;73.56;94685.09;5009898;28;20505;-70
2020/12/17 01:24:19;;;;;;;47.67;16.45;;;;;;;4.91;74.19;94680.34;5008827;28;20045;-69
2020/12/17 01:26:44;;;;;;;51.50;16.33;;;;;;;4.86;74.10;94682.94;5008360;28;20545;-70
2020/12/17 01:29:10;;;;;;;49.63;16.75;;;;;;;4.84;73.72;94669.19;5008737;28;20520;-70
2020/12/17 01:31:35;;;;;;;54.00;17.73;;;;;;;4.79;74.21;94677.09;5008708;28;20036;-70
2020/12/17 01:34:01;;;;;;;43.38;18.48;;;;;;;4.77;73.91;94684.50;5009598;28;20508;-70
2020/12/17 01:36:26;;;;;;;55.50;18.20;;;;;;;4.71;74.35;94681.00;5009979;28;20567;-70
2020/12/17 01:38:52;;;;;;;71.50;18.65;;;;;;;4.68;74.58;94686.00;5009903;28;20067;-70
2020/12/17 01:41:17;;;;;;;43.03;18.08;;;;;;;4.60;74.81;94684.66;5009633;28;20056;-70
2020/12/17 01:43:45;;;;;;;52.50;19.52;;;;;;;4.58;75.33;94681.44;5010169;28;20030;-70
2020/12/17 01:46:14;;;;;;;46.38;18.77;;;;;;;4.62;75.61;94672.78;5008556;28;20418;-70
2020/12/17 01:48:41;;;;;;;42.60;18.42;;;;;;;4.66;75.61;94670.44;5008746;28;20061;-70
2020/12/17 01:51:08;;;;;;;43.85;17.25;;;;;;;4.75;75.47;94673.38;5008581;28;20033;-70
2020/12/17 01:53:38;;;;;;;43.55;17.85;;;;;;;4.85;74.98;94670.00;5010017;28;20030;-70
2020/12/17 01:56:26;;;;;;;56.63;18.42;;;;;;;4.87;74.79;94668.69;5007532;28;20091;-70
2020/12/17 01:59:12;;;;;;;43.95;17.55;;;;;;;4.85;74.40;94670.00;5006580;28;20069;-70
2020/12/17 02:01:45;;;;;;;45.17;17.80;;;;;;;4.85;74.69;94672.66;5010171;28;20037;-70
2020/12/17 02:04:11;;;;;;;44.42;17.98;;;;;;;4.87;74.89;94671.34;5006651;28;20489;-70
2020/12/17 02:06:37;;;;;;;46.22;16.70;;;;;;;4.89;74.48;94669.22;5009593;28;20045;-70
2020/12/17 02:09:03;;;;;;;41.33;14.80;;;;;;;4.89;74.38;94669.22;5010030;28;20405;-70
2020/12/17 02:11:28;;;;;;;35.97;15.82;;;;;;;4.96;73.95;94655.78;5009974;28;20520;-70
2020/12/17 02:13:54;;;;;;;34.08;15.23;;;;;;;4.98;73.36;94653.66;5008690;28;20113;-68
2020/12/17 02:16:20;;;;;;;37.97;14.82;;;;;;;4.97;73.32;94654.75;5009953;28;20547;-68
2020/12/17 02:18:45;;;;;;;45.08;16.58;;;;;;;4.96;73.64;94667.13;5009771;28;20358;-68
2020/12/17 02:21:12;;;;;;;37.80;14.48;;;;;;;4.98;73.42;94664.25;5008648;28;20040;-68
2020/12/17 02:23:38;;;;;;;39.13;15.32;;;;;;;4.97;73.49;94657.38;5010167;28;20080;-69
2020/12/17 02:26:05;;;;;;;41.65;16.23;;;;;;;4.96;73.88;94653.13;5010653;28;20500;-69
2020/12/17 02:28:31;;;;;;;43.72;17.52;;;;;;;4.98;73.80;94662.38;5011503;28;20105;-69
2020/12/17 02:30:57;;;;;;;40.75;15.55;;;;;;;5.02;73.52;94644.97;5013637;28;20101;-69
2020/12/17 02:33:22;;;;;;;36.50;15.95;;;;;;;5.07;73.53;94646.03;5013268;28;20483;-68
2020/12/17 02:35:48;;;;;;;44.33;17.00;;;;;;;5.08;73.42;94645.00;5013363;28;20024;-68
2020/12/17 02:38:13;;;;;;;43.67;16.42;;;;;;;5.07;73.54;94636.28;5013540;28;20034;-69
2020/12/17 02:40:39;;;;;;;47.60;18.15;;;;;;;5.10;73.59;94634.97;5011861;28;20500;-69
2020/12/17 02:43:04;;;;;;;47.25;17.80;;;;;;;5.12;73.42;94643.44;5013205;28;20509;-68
2020/12/17 02:45:30;;;;;;;38.72;16.55;;;;;;;5.12;73.33;94646.84;5011940;28;20026;-69
2020/12/17 02:47:56;;;;;;;51.00;18.02;;;;;;;5.13;73.33;94650.28;5013059;28;20033;-68
2020/12/17 02:50:21;;;;;;;50.50;18.63;;;;;;;5.16;73.31;94644.50;5013257;28;20068;-69
2020/12/17 02:52:47;;;;;;;52.60;17.02;;;;;;;5.17;73.56;94646.06;5013028;28;20028;-68
2020/12/17 02:55:13;;;;;;;48.97;17.70;;;;;;;5.18;73.39;94648.47;5012987;28;20033;-69
2020/12/17 02:57:38;;;;;;;46.42;17.20;;;;;;;5.19;73.45;94641.31;5013288;28;20022;-69
2020/12/17 03:00:06;;;;;;;47.67;18.88;;;;;;;5.21;73.21;94636.56;5013028;28;20554;-69
2020/12/17 03:02:32;;;;;;;57.30;19.40;;;;;;;5.24;73.10;94651.91;5011589;28;20037;-68
2020/12/17 03:04:58;;;;;;;49.53;17.02;;;;;;;5.27;72.85;94651.41;5012751;28;20054;-69
2020/12/17 03:07:23;;;;;;;45.30;17.95;;;;;;;5.20;72.81;94646.34;5011498;28;20092;-69
2020/12/17 03:09:49;;;;;;;50.90;17.55;;;;;;;5.17;73.30;94656.66;5012836;28;20104;-69
2020/12/17 03:12:14;;;;;;;53.08;17.83;;;;;;;5.15;73.04;94651.63;5011449;28;20030;-69
2020/12/17 03:14:39;;;;;;;73.30;19.02;;;;;;;5.12;73.55;94662.72;5011460;28;20033;-68
2020/12/17 03:17:05;;;;;;;53.67;18.70;;;;;;;5.06;73.87;94662.97;5012456;28;20104;-68
2020/12/17 03:19:31;;;;;;;56.63;19.48;;;;;;;5.05;74.11;94664.81;5012359;28;20034;-69
2020/12/17 03:21:56;;;;;;;66.10;20.55;;;;;;;5.03;74.24;94646.56;5012939;28;20508;-68
2020/12/17 03:24:22;;;;;;;53.75;18.17;;;;;;;5.04;74.14;94655.28;5013097;28;20505;-68
2020/12/17 03:26:47;;;;;;;58.92;19.83;;;;;;;5.02;74.28;94649.47;5012814;28;20037;-68
2020/12/17 03:29:13;;;;;;;68.40;20.30;;;;;;;5.02;74.34;94660.81;5013103;28;20026;-68
2020/12/17 03:31:38;;;;;;;61.25;21.00;;;;;;;5.02;74.28;94662.66;5013091;28;20034;-69
2020/12/17 03:34:03;;;;;;;64.90;19.38;;;;;;;4.92;74.44;94671.34;5013291;28;20053;-69
2020/12/17 03:36:29;;;;;;;68.72;18.40;;;;;;;4.92;74.68;94671.34;5012818;28;20022;-69
2020/12/17 03:38:54;;;;;;;70.80;21.27;;;;;;;4.88;74.89;94675.53;5012284;28;20028;-69
2020/12/17 03:41:20;;;;;;;64.85;19.35;;;;;;;4.83;75.21;94672.91;5011222;28;20127;-69
2020/12/17 03:43:45;;;;;;;58.92;19.95;;;;;;;4.88;75.25;94672.13;5012010;28;20034;-69
2020/12/17 03:46:11;;;;;;;68.93;19.70;;;;;;;4.85;75.17;94680.56;5012291;28;20172;-68
2020/12/17 03:48:36;;;;;;;67.55;19.70;;;;;;;4.84;75.25;94674.47;5011802;28;20140;-69
2020/12/17 03:51:02;;;;;;;67.13;19.02;;;;;;;4.83;75.45;94678.19;5010503;28;20036;-70
2020/12/17 03:53:28;;;;;;;63.08;19.58;;;;;;;4.81;75.00;94675.78;5012112;28;20037;-70
2020/12/17 03:55:53;;;;;;;115.05;19.92;;;;;;;4.82;75.44;94676.56;5011799;28;20034;-70
2020/12/17 03:58:18;;;;;;;53.58;17.13;;;;;;;4.78;75.63;94675.50;5012075;28;20017;-69
2020/12/17 04:00:44;;;;;;;82.50;17.92;;;;;;;4.72;75.80;94668.59;5011767;28;20113;-69
2020/12/17 04:03:10;;;;;;;67.07;18.70;;;;;;;4.70;76.11;94673.34;5011850;28;20029;-70
2020/12/17 04:05:35;;;;;;;101.88;18.95;;;;;;;4.68;76.19;94676.25;5011999;28;20112;-69
2020/12/17 04:08:00;;;;;;;61.92;18.02;;;;;;;4.66;76.21;94674.91;5011680;28;20038;-69
2020/12/17 04:10:26;;;;;;;89.32;18.63;;;;;;;4.59;76.42;94665.38;5010445;28;20037;-69
2020/12/17 04:12:51;;;;;;;92.63;18.10;;;;;;;4.55;76.61;94672.22;5011743;28;20032;-69
2020/12/17 04:15:17;;;;;;;79.32;21.30;;;;;;;4.54;77.02;94670.63;5011680;28;20084;-69
2020/12/17 04:17:42;;;;;;;64.90;17.52;;;;;;;4.58;76.60;94666.44;5010291;28;20052;-69
2020/12/17 04:20:08;;;;;;;102.57;19.08;;;;;;;4.60;76.84;94663.53;5010429;28;20032;-69
2020/12/17 04:22:34;;;;;;;98.45;18.70;;;;;;;4.62;76.82;94669.38;5011674;28;20520;-69
2020/12/17 04:24:59;;;;;;;55.10;17.38;;;;;;;4.67;76.56;94671.22;5010029;28;20030;-69
2020/12/17 04:27:25;;;;;;;66.75;16.67;;;;;;;4.67;76.55;94672.00;5011292;28;20026;-69
2020/12/17 04:29:50;;;;;;;70.53;17.70;;;;;;;4.67;76.53;94679.16;5010343;28;20060;-69
2020/12/17 04:32:16;;;;;;;60.00;19.48;;;;;;;4.71;76.59;94669.66;5010824;28;20083;-70
2020/12/17 04:34:41;;;;;;;48.85;18.20;;;;;;;4.75;76.40;94671.53;5012397;28;20041;-70
2020/12/17 04:37:06;;;;;;;48.08;17.33;;;;;;;4.82;76.14;94676.56;5012197;28;20017;-70
2020/12/17 04:39:32;;;;;;;40.60;15.10;;;;;;;4.90;75.78;94668.16;5012342;28;20021;-70
2020/12/17 04:41:59;;;;;;;48.08;17.20;;;;;;;4.92;75.63;94668.69;5012101;28;20121;-70
2020/12/17 04:44:26;;;;;;;47.80;16.70;;;;;;;4.95;75.60;94673.47;5010793;28;20064;-70
2020/12/17 04:46:55;;;;;;;51.35;18.58;;;;;;;5.00;75.20;94670.84;5012046;28;20030;-71
2020/12/17 04:49:25;;;;;;;61.40;16.52;;;;;;;5.01;74.98;94664.53;5010229;28;20026;-71
2020/12/17 04:51:56;;;;;;;50.53;16.50;;;;;;;5.05;74.85;94671.91;5011778;28;20045;-71
2020/12/17 04:54:23;;;;;;;50.38;17.50;;;;;;;5.08;74.57;94674.06;5012063;28;20037;-71
2020/12/17 04:56:58;;;;;;;48.38;17.35;;;;;;;5.09;74.55;94670.34;5010623;28;20037;-71
2020/12/17 04:59:40;;;;;;;62.83;19.02;;;;;;;5.05;74.75;94666.63;5011883;28;20811;-71
2020/12/17 05:02:06;;;;;;;60.67;23.00;;;;;;;5.01;74.78;94674.31;5010702;28;20043;-71
2020/12/17 05:04:36;;;;;;;61.47;22.88;;;;;;;5.06;74.84;94666.38;5011669;28;20046;-71
2020/12/17 05:07:06;;;;;;;60.90;19.23;;;;;;;5.11;74.41;94673.53;5010109;28;20037;-71
2020/12/17 05:09:33;;;;;;;61.65;21.38;;;;;;;5.08;74.51;94676.72;5010395;28;20040;-70
2020/12/17 05:11:58;;;;;;;57.92;21.98;;;;;;;5.08;74.81;94671.41;4994224;28;20083;-71
2020/12/17 05:14:24;;;;;;;69.32;23.80;;;;;;;5.07;74.69;94672.47;5011718;28;20034;-71
2020/12/17 05:16:50;;;;;;;64.03;21.15;;;;;;;5.06;74.81;94676.16;5011606;28;20041;-71
2020/12/17 05:19:15;;;;;;;57.03;19.90;;;;;;;5.06;74.80;94669.03;5010499;28;20611;-71
2020/12/17 05:21:41;;;;;;;49.13;18.38;;;;;;;5.08;74.74;94669.56;5010116;28;20036;-71
2020/12/17 05:24:08;;;;;;;61.65;22.02;;;;;;;5.10;74.97;94666.69;5010753;28;20112;-71
2020/12/17 05:26:35;;;;;;;57.47;21.85;;;;;;;5.12;74.96;94669.84;5011049;28;20570;-71
2020/12/17 05:29:00;;;;;;;65.85;22.85;;;;;;;5.15;74.98;94679.88;5010793;28;20030;-71
2020/12/17 05:31:26;;;;;;;64.35;20.50;;;;;;;5.15;74.86;94672.78;5009642;28;20025;-71
2020/12/17 05:33:52;;;;;;;63.25;21.10;;;;;;;5.20;74.68;94679.94;5009384;28;20026;-71
2020/12/17 05:36:24;;;;;;;55.95;19.65;;;;;;;5.23;74.63;94677.56;5009059;28;20033;-70
2020/12/17 05:38:50;;;;;;;58.08;20.75;;;;;;;5.23;74.56;94682.84;5011564;28;20034;-70
2020/12/17 05:41:17;;;;;;;62.03;19.25;;;;;;;5.26;74.29;94672.81;5011454;28;20029;-70
2020/12/17 05:43:43;;;;;;;51.30;18.27;;;;;;;5.24;74.40;94683.63;5011516;28;20117;-71
2020/12/17 05:46:08;;;;;;;47.15;17.63;;;;;;;5.29;74.05;94683.66;5010033;28;20121;-71
2020/12/17 05:48:34;;;;;;;42.97;15.10;;;;;;;5.29;73.64;94683.66;5010705;28;20026;-71
2020/12/17 05:51:01;;;;;;;46.90;18.35;;;;;;;5.29;73.50;94680.22;5009011;28;20034;-71
2020/12/17 05:53:29;;;;;;;41.58;15.50;;;;;;;5.29;73.46;94693.44;5008920;28;20150;-71
2020/12/17 05:56:02;;;;;;;50.78;18.02;;;;;;;5.25;73.79;94692.34;5010141;28;20063;-71
2020/12/17 05:58:37;;;;;;;51.00;17.20;;;;;;;5.23;73.82;94697.91;5010252;28;20113;-71
2020/12/17 06:01:07;;;;;;;47.47;17.50;;;;;;;5.22;73.73;94696.31;5009406;28;20033;-71
2020/12/17 06:03:33;;;;;;;54.08;18.08;;;;;;;5.16;74.04;94700.00;5015445;28;20026;-71
2020/12/17 06:06:00;;;;;;;55.78;16.88;;;;;;;5.13;74.19;94708.41;5015457;28;20427;-71
2020/12/17 06:08:33;;;;;;;43.08;15.60;;;;;;;5.08;74.40;94716.34;5015168;28;20026;-71
2020/12/17 06:11:02;;;;;;;64.20;17.40;;;;;;;5.02;74.85;94708.38;5015357;28;20026;-71
2020/12/17 06:13:32;;;;;;;59.10;18.48;;;;;;;5.03;75.18;94709.97;5015405;28;20053;-71
2020/12/17 06:16:03;;;;;;;66.95;19.65;;;;;;;5.03;75.21;94715.28;5014625;28;20092;-70
2020/12/17 06:18:47;;;;;;;58.50;19.38;;;;;;;5.05;75.25;94708.91;5013752;28;20022;-70
2020/12/17 06:21:14;;;;;;;56.97;19.75;;;;;;;5.05;75.17;94711.56;5013872;28;20038;-71
2020/12/17 06:23:40;;;;;;;57.75;19.65;;;;;;;5.02;75.38;94710.22;5014008;28;20030;-70
2020/12/17 06:26:10;;;;;;;60.70;20.50;;;;;;;5.05;75.81;94708.91;5013879;28;20022;-70
2020/12/17 06:28:47;;;;;;;62.25;20.70;;;;;;;5.07;75.61;94702.34;5013542;28;20022;-70
2020/12/17 06:31:18;;;;;;;65.63;22.42;;;;;;;5.15;75.54;94706.31;5013687;28;20029;-70
2020/12/17 06:33:44;;;;;;;62.65;21.75;;;;;;;5.18;75.35;94706.59;5010120;28;20116;-70
2020/12/17 06:36:21;;;;;;;64.15;21.58;;;;;;;5.27;75.25;94703.47;5012285;28;20038;-70
2020/12/17 06:38:48;;;;;;;67.00;21.85;;;;;;;5.34;74.98;94710.13;5013805;28;20022;-71
2020/12/17 06:41:19;;;;;;;62.33;21.35;;;;;;;5.39;74.65;94717.25;5012990;28;20040;-71
2020/12/17 06:43:45;;;;;;;55.78;20.08;;;;;;;5.41;74.49;94717.78;5014266;28;20017;-71
2020/12/17 06:46:40;;;;;;;84.05;22.90;;;;;;;5.42;74.44;94714.13;5014591;28;20034;-71
2020/12/17 06:49:07;;;;;;;55.92;19.50;;;;;;;5.42;74.32;94717.53;5003748;28;20073;-71
2020/12/17 06:51:42;;;;;;;62.63;21.58;;;;;;;5.44;74.47;94712.00;5014473;28;20030;-71
2020/12/17 06:54:28;;;;;;;62.15;21.33;;;;;;;5.49;74.07;94712.00;5013044;28;20052;-67
2020/12/17 06:57:11;;;;;;;63.97;21.40;;;;;;;5.51;74.30;94709.09;5011860;28;20029;-68
2020/12/17 06:59:38;;;;;;;60.97;21.40;;;;;;;5.51;74.16;94711.75;5013642;28;20428;-67
2020/12/17 07:02:05;;;;;;;61.72;22.33;;;;;;;5.54;74.24;94719.97;5013310;28;20049;-68
2020/12/17 07:04:48;;;;;;;64.88;20.67;;;;;;;5.57;74.44;94708.06;5013534;28;20025;-67
2020/12/17 07:07:24;;;;;;;54.97;22.45;;;;;;;5.65;74.05;94718.13;5012063;28;20045;-67
2020/12/17 07:09:56;;;;;;;70.00;21.17;;;;;;;5.71;73.80;94719.75;5012929;28;20022;-67
2020/12/17 07:12:41;;;;;;;64.72;20.98;;;;;;;5.77;73.69;94721.34;5010967;28;20485;-67
2020/12/17 07:15:31;;;;;;;57.35;21.27;;;;;;;5.84;73.29;94729.03;5010360;28;20498;-67
2020/12/17 07:18:35;;;;;;;52.33;19.80;;;;;;;5.87;72.77;94723.22;5011465;28;20053;-67
2020/12/17 07:21:07;;;;;;;54.97;18.95;;;;;;;5.90;72.78;94721.91;4983878;28;20026;-65
2020/12/17 07:23:37;;;;;;;56.83;21.38;;;;;;;5.96;72.73;94726.16;4978214;28;20019;-66
2020/12/17 07:26:15;;;;;;;55.15;19.58;;;;;;;5.97;72.77;94717.19;4983576;28;20037;-66
2020/12/17 07:28:50;;;;;;;52.33;20.70;;;;;;;5.96;72.71;94723.53;5012919;28;20088;-66
2020/12/17 07:31:24;;;;;;;55.88;21.13;;;;;;;5.98;72.66;94729.34;5012573;28;20037;-66
2020/12/17 07:33:56;;;;;;;53.55;21.75;;;;;;;5.98;72.52;94729.34;5012633;28;20021;-67
2020/12/17 07:36:45;;;;;;;58.33;22.75;;;;;;;5.99;72.41;94728.31;5011346;28;20045;-66
2020/12/17 07:39:11;;;;;;;52.17;20.15;;;;;;;5.99;72.48;94715.84;5012245;28;20123;-66
2020/12/17 07:41:36;;;;;;;54.75;19.60;;;;;;;5.99;72.31;94723.00;5011620;28;20045;-68
2020/12/17 07:44:02;;;;;;;47.95;17.60;;;;;;;6.04;71.56;94728.28;5012057;28;20036;-67
2020/12/17 07:46:45;;;;;;;38.13;15.52;;;;;;;6.07;71.15;94732.28;5012024;28;20377;-68
2020/12/17 07:49:30;;;;;;;44.90;17.33;;;;;;;6.00;72.12;94722.75;5010687;28;20405;-68
2020/12/17 07:51:56;;;;;;;42.60;17.50;;;;;;;6.00;72.07;94732.53;5011989;28;20448;-67
2020/12/17 07:54:22;;;;;;;43.72;18.48;;;;;;;6.01;72.11;94734.13;5011744;28;20106;-68
2020/12/17 07:56:49;;;;;;;57.88;22.88;;;;;;;6.04;72.06;94730.94;5012094;28;20029;-67
2020/12/17 07:59:15;;;;;;;82.32;37.10;;;;;;;6.06;72.00;94733.34;5012163;28;20041;-67
2020/12/17 08:01:40;;;;;;;75.00;30.67;;;;;;;6.09;71.79;94746.84;5012256;28;20025;-67
2020/12/17 08:04:07;;;;;;;61.15;20.10;;;;;;;6.14;71.80;94746.03;5011187;28;20057;-68
2020/12/17 08:06:34;;;;;;;61.78;23.50;;;;;;;6.18;71.42;94739.16;5012449;28;20060;-67
2020/12/17 08:09:03;;;;;;;53.20;20.83;;;;;;;6.24;71.29;94746.06;5010508;28;20508;-68
2020/12/17 08:11:29;;;;;;;50.78;20.58;;;;;;;6.31;70.76;94737.84;5011191;28;20477;-68
2020/12/17 08:14:06;;;;;;;52.08;21.45;;;;;;;6.33;70.71;94746.31;5010549;28;20057;-67
2020/12/17 08:16:32;;;;;;;37.50;16.42;;;;;;;6.37;70.64;94752.69;5011103;28;20045;-67
2020/12/17 08:18:59;;;;;;;51.70;18.23;;;;;;;6.33;70.41;94747.13;5011878;28;20083;-68
2020/12/17 08:21:25;;;;;;;51.70;19.23;;;;;;;6.25;70.51;94744.19;5012105;28;20056;-68
2020/12/17 08:23:51;;;;;;;53.17;18.83;;;;;;;6.17;70.80;94748.97;5012218;28;20033;-68
2020/12/17 08:26:19;;;;;;;60.25;20.98;;;;;;;6.10;71.60;94758.22;5010327;28;20025;-68
2020/12/17 08:28:45;;;;;;;49.95;21.10;;;;;;;6.12;71.97;94751.59;5011844;28;20044;-67
2020/12/17 08:31:32;;;;;;;57.13;20.20;;;;;;;6.14;72.22;94754.78;5011858;28;20029;-67
2020/12/17 08:34:00;;;;;;;58.85;21.70;;;;;;;6.15;71.43;94750.31;5011769;28;20153;-66
2020/12/17 08:36:32;;;;;;;59.85;22.15;;;;;;;6.08;72.06;94755.81;5010472;28;20516;-67
2020/12/17 08:39:12;;;;;;;66.80;23.92;;;;;;;6.00;72.41;94762.44;5011817;28;20506;-67
2020/12/17 08:41:56;;;;;;;69.90;24.70;;;;;;;5.96;72.87;94763.22;5010613;28;20431;-66
2020/12/17 08:44:28;;;;;;;76.05;27.10;;;;;;;5.86;73.37;94760.50;5008564;28;20029;-67
2020/12/17 08:47:05;;;;;;;82.18;26.50;;;;;;;5.78;73.94;94762.63;5011396;28;20109;-67
2020/12/17 08:49:31;;;;;;;89.45;27.60;;;;;;;5.66;74.70;94762.06;5011608;28;20038;-66
2020/12/17 08:51:57;;;;;;;82.03;28.45;;;;;;;5.72;74.64;94750.44;5010230;28;20129;-66
2020/12/17 08:54:34;;;;;;;89.60;29.63;;;;;;;5.77;74.22;94744.38;5011442;28;20033;-67
2020/12/17 08:57:11;;;;;;;86.47;28.30;;;;;;;5.80;74.08;94749.94;5011169;28;20041;-67
2020/12/17 08:59:37;;;;;;;81.95;29.23;;;;;;;5.87;74.15;94748.88;5009824;28;20032;-67
2020/12/17 09:02:03;;;;;;;92.32;29.83;;;;;;;5.88;73.98;94739.88;5011166;28;20053;-68
2020/12/17 09:04:29;;;;;;;91.97;27.52;;;;;;;5.97;74.00;94739.16;5009646;28;20061;-66
2020/12/17 09:07:00;;;;;;;82.45;25.48;;;;;;;6.00;73.64;94737.81;5011162;28;20445;-66
2020/12/17 09:09:28;;;;;;;93.78;30.92;;;;;;;6.03;73.76;94738.09;5010977;28;20101;-66
2020/12/17 09:11:56;;;;;;;90.70;30.67;;;;;;;6.11;73.52;94730.72;5011111;28;20046;-66
2020/12/17 09:14:33;;;;;;;96.60;30.58;;;;;;;6.17;73.07;94727.78;5009717;28;20083;-66
2020/12/17 09:17:15;;;;;;;89.15;30.48;;;;;;;6.18;73.19;94737.31;5009865;28;20497;-65
2020/12/17 09:19:41;;;;;;;82.63;30.02;;;;;;;6.24;73.29;94740.75;5010808;28;20513;-66
2020/12/17 09:22:07;;;;;;;83.18;28.98;;;;;;;6.30;73.39;94730.97;5010854;28;20030;-66
2020/12/17 09:24:38;;;;;;;91.93;31.92;;;;;;;6.40;73.21;94729.13;5010567;28;20108;-66
2020/12/17 09:27:24;;;;;;;93.43;32.38;;;;;;;6.47;73.15;94728.84;5010524;28;20076;-66
2020/12/17 09:30:09;;;;;;;114.47;32.72;;;;;;;6.49;72.39;94729.38;5009740;28;20080;-66
2020/12/17 09:32:37;;;;;;;94.32;30.63;;;;;;;6.47;72.18;94720.91;5009363;28;20169;-66
2020/12/17 09:35:05;;;;;;;102.28;34.72;;;;;;;6.47;72.28;94715.59;5010680;28;20022;-67
2020/12/17 09:37:31;;;;;;;89.22;32.00;;;;;;;6.49;72.62;94721.44;5008901;28;20026;-67
2020/12/17 09:39:57;;;;;;;101.05;33.15;;;;;;;6.45;72.85;94723.03;5010531;28;20104;-67
2020/12/17 09:42:23;;;;;;;94.57;31.27;;;;;;;6.48;72.71;94727.00;5008485;28;20077;-67
2020/12/17 09:44:49;;;;;;;99.70;33.88;;;;;;;6.50;72.34;94723.03;5010000;28;20030;-67
2020/12/17 09:47:29;;;;;;;91.07;32.20;;;;;;;6.54;72.19;94726.72;5009977;28;20064;-67
2020/12/17 09:50:05;;;;;;;97.97;32.45;;;;;;;6.52;72.13;94723.56;5008870;28;20049;-67
2020/12/17 09:52:31;;;;;;;89.53;32.83;;;;;;;6.46;72.22;94724.63;5009852;28;20147;-67
2020/12/17 09:54:56;;;;;;;94.68;35.03;;;;;;;6.45;72.42;94722.22;5008456;28;20119;-67
2020/12/17 09:57:22;;;;;;;87.47;31.08;;;;;;;6.55;71.67;94719.56;5010040;28;20018;-68
2020/12/17 09:59:47;;;;;;;91.57;31.35;;;;;;;6.47;72.02;94720.91;5009887;28;20025;-67
2020/12/17 10:02:14;;;;;;;85.78;34.03;;;;;;;6.50;71.94;94724.88;5009925;28;20042;-67
2020/12/17 10:04:42;;;;;;;85.07;33.17;;;;;;;6.56;72.07;94718.53;5008572;28;20018;-67
2020/12/17 10:07:09;;;;;;;105.68;37.03;;;;;;;6.59;72.03;94728.56;5009633;28;20493;-68
2020/12/17 10:09:35;;;;;;;108.15;39.58;;;;;;;6.58;71.72;94719.84;5008278;28;20030;-68
2020/12/17 10:12:02;;;;;;;99.85;38.42;;;;;;;6.58;71.91;94722.50;5009452;28;20060;-68
2020/12/17 10:14:28;;;;;;;93.32;36.13;;;;;;;6.59;72.01;94713.50;5008509;28;20513;-67
2020/12/17 10:16:59;;;;;;;113.65;38.72;;;;;;;6.64;72.00;94718.00;5008701;28;20049;-65
2020/12/17 10:19:29;;;;;;;101.85;37.33;;;;;;;6.65;71.95;94719.56;5008814;28;20030;-66
2020/12/17 10:21:56;;;;;;;103.88;40.45;;;;;;;6.70;71.90;94714.28;5009828;28;20022;-65
2020/12/17 10:24:23;;;;;;;98.25;37.50;;;;;;;6.72;71.56;94709.50;5008548;28;20405;-66
2020/12/17 10:26:48;;;;;;;106.80;39.00;;;;;;;6.73;71.52;94705.00;5008574;28;20033;-66
2020/12/17 10:29:13;;;;;;;96.50;37.97;;;;;;;6.71;71.40;94709.75;5008469;28;20041;-66
2020/12/17 10:31:39;;;;;;;100.50;38.70;;;;;;;6.72;71.67;94708.72;5009748;28;20030;-66
2020/12/17 10:34:06;;;;;;;105.00;39.72;;;;;;;6.79;71.33;94711.88;5008139;28;20030;-65
2020/12/17 10:36:37;;;;;;;109.10;39.13;;;;;;;6.74;71.78;94709.25;5008942;28;20041;-66
2020/12/17 10:39:04;;;;;;;107.10;39.72;;;;;;;6.71;72.08;94709.75;5008420;28;20029;-66
2020/12/17 10:41:29;;;;;;;102.90;39.65;;;;;;;6.78;71.83;94697.84;5009467;28;20049;-66
2020/12/17 10:43:55;;;;;;;101.65;39.35;;;;;;;6.88;71.59;94704.97;5009474;28;20105;-66
2020/12/17 10:46:21;;;;;;;105.05;40.63;;;;;;;7.00;71.56;94694.06;5008665;28;20014;-66
2020/12/17 10:48:47;;;;;;;105.07;38.88;;;;;;;7.03;71.39;94696.97;5010731;28;20432;-67
2020/12/17 10:51:14;;;;;;;106.93;38.83;;;;;;;7.11;71.10;94700.94;5011784;28;20048;-66
2020/12/17 10:53:40;;;;;;;110.20;39.90;;;;;;;7.20;70.57;94699.28;5011768;28;20034;-65
2020/12/17 10:56:07;;;;;;;114.00;40.90;;;;;;;7.25;70.52;94697.72;5012938;28;20024;-66
2020/12/17 10:58:32;;;;;;;112.65;44.08;;;;;;;7.28;70.66;94700.59;5012929;28;20405;-65
2020/12/17 11:00:58;;;;;;;111.63;40.05;;;;;;;7.33;70.83;94694.50;5013048;28;20133;-66
2020/12/17 11:03:23;;;;;;;117.78;41.35;;;;;;;7.40;70.46;94690.47;5012907;28;20106;-65
2020/12/17 11:05:49;;;;;;;115.25;41.78;;;;;;;7.43;70.25;94692.59;5013180;28;20109;-65
2020/12/17 11:08:14;;;;;;;105.32;41.22;;;;;;;7.47;70.31;94686.72;5010998;28;20437;-65
2020/12/17 11:10:39;;;;;;;103.03;41.33;;;;;;;7.54;70.12;94692.53;5011575;28;20477;-65
2020/12/17 11:13:06;;;;;;;117.40;41.65;;;;;;;7.62;69.91;94686.66;5012710;28;20564;-65
2020/12/17 11:15:31;;;;;;;102.18;40.10;;;;;;;7.70;69.02;94685.28;5012443;28;20030;-66
2020/12/17 11:17:57;;;;;;;113.78;41.13;;;;;;;7.64;68.84;94689.81;5011334;28;20022;-66
2020/12/17 11:20:22;;;;;;;107.80;42.70;;;;;;;7.63;68.57;94677.63;5011155;28;20025;-66
2020/12/17 11:22:48;;;;;;;108.32;43.20;;;;;;;7.59;68.99;94680.03;5012873;28;20029;-66
2020/12/17 11:25:13;;;;;;;102.32;39.80;;;;;;;7.61;68.88;94682.41;5012630;28;20413;-66
2020/12/17 11:27:39;;;;;;;110.90;40.40;;;;;;;7.62;68.81;94671.53;5012330;28;20041;-65
2020/12/17 11:30:06;;;;;;;104.32;43.40;;;;;;;7.66;68.86;94681.59;5012657;28;20504;-65